Time;durP1;ratioP1;P1;durP2;ratioP2;P2;SDS_P1;SDS_P2;PMS_P1;PMS_P2;Temp;Humidity;BMP_temperature;BMP_pressure;BME280_temperature;BME280_humidity;BME280_pressure;Samples;Min_cycle;Max_cycle;Signal;HPM_P1;HPM_P2
2022/03/27 00:00:49;;;;;;;;;51.00;38.00;;;;;16.82;45.74;102430.88;4994383;28;45276;-77
2022/03/27 00:03:15;;;;;;;;;48.25;37.75;;;;;16.82;45.40;102432.59;4994150;28;45474;-76
2022/03/27 00:05:40;;;;;;;;;41.25;35.00;;;;;16.79;45.88;102429.88;4993769;28;45846;-78
2022/03/27 00:08:06;;;;;;;;;45.75;36.00;;;;;16.74;45.57;102421.78;4993869;28;45752;-79
2022/03/27 00:11:23;;;;;;;;;49.00;35.00;;;;;16.69;46.10;102418.94;4994211;28;45453;-75
2022/03/27 00:13:17;;;;;;;;;49.00;34.50;;;;;16.75;45.85;102430.53;4993799;28;45481;-79
2022/03/27 00:15:43;;;;;;;;;45.50;35.75;;;;;16.75;45.72;102425.31;4992583;28;46750;-76
2022/03/27 00:18:08;;;;;;;;;43.00;34.75;;;;;16.65;46.22;102422.28;4993807;28;45327;-77
2022/03/27 00:20:34;;;;;;;;;40.00;29.50;;;;;16.68;46.26;102416.28;4994580;27;45403;-76
2022/03/27 00:23:00;;;;;;;;;46.25;36.25;;;;;16.64;46.15;102420.47;4997983;28;45394;-74
2022/03/27 00:25:25;;;;;;;;;42.50;35.75;;;;;16.64;46.25;102423.09;4997385;27;46106;-73
2022/03/27 00:27:51;;;;;;;;;47.00;36.00;;;;;16.60;46.49;102422.88;4994195;28;45201;-76
2022/03/27 00:30:16;;;;;;;;;44.00;34.50;;;;;16.58;46.60;102424.53;4976047;28;45248;-75
2022/03/27 00:32:42;;;;;;;;;44.00;35.50;;;;;16.47;46.53;102408.34;4994120;27;45260;-74
2022/03/27 00:35:08;;;;;;;;;49.75;35.25;;;;;16.51;47.46;102426.88;4993551;28;45293;-77
2022/03/27 00:37:35;;;;;;;;;36.75;30.00;;;;;16.50;47.22;102432.00;5000955;28;45477;-76
2022/03/27 00:40:01;;;;;;;;;50.50;38.00;;;;;16.42;46.80;102412.47;4997866;28;45424;-77
2022/03/27 00:42:27;;;;;;;;;39.25;35.00;;;;;16.47;46.98;102426.63;4994076;27;45405;-76
2022/03/27 00:44:52;;;;;;;;;39.75;33.75;;;;;16.36;47.46;102416.56;4993910;28;45305;-76
2022/03/27 00:47:18;;;;;;;;;52.25;39.50;;;;;16.41;47.66;102427.28;4993700;27;45383;-77
2022/03/27 00:49:44;;;;;;;;;42.25;35.75;;;;;16.43;47.41;102422.09;4994272;28;45437;-78
2022/03/27 00:52:09;;;;;;;;;49.50;38.75;;;;;16.45;47.63;102420.47;4993686;28;45433;-77
2022/03/27 00:54:35;;;;;;;;;41.50;34.50;;;;;16.39;47.97;102419.34;4975723;28;47828;-75
2022/03/27 00:57:00;;;;;;;;;46.75;33.00;;;;;16.40;47.99;102420.25;5002114;28;45280;-77
2022/03/27 00:59:26;;;;;;;;;53.00;39.50;;;;;16.33;47.49;102411.22;5013316;27;45242;-75
2022/03/27 01:01:51;;;;;;;;;46.25;37.50;;;;;16.39;47.92;102419.34;5013975;28;45221;-76
2022/03/27 01:04:17;;;;;;;;;46.25;36.00;;;;;16.38;48.05;102420.16;5013090;28;45340;-78
2022/03/27 01:06:44;;;;;;;;;39.75;35.00;;;;;16.26;48.14;102406.50;5014458;27;45267;-78
2022/03/27 01:12:28;;;;;;;;;47.00;36.25;;;;;16.24;48.42;102416.03;5003825;28;45318;-78
2022/03/27 01:14:54;;;;;;;;;44.00;36.00;;;;;16.16;48.99;102413.03;4988137;27;46043;-77
2022/03/27 01:17:23;;;;;;;;;46.25;36.50;;;;;16.15;49.32;102408.63;5005906;28;45896;-76
2022/03/27 01:19:52;;;;;;;;;50.00;39.00;;;;;16.16;48.93;102407.81;4999073;28;45279;-76
2022/03/27 01:22:19;;;;;;;;;46.75;36.00;;;;;16.21;49.12;102408.03;4996319;28;45528;-77
2022/03/27 01:24:47;;;;;;;;;45.75;38.75;;;;;16.20;49.12;102407.13;4995917;27;46642;-78
2022/03/27 01:27:13;;;;;;;;;45.25;37.50;;;;;16.19;49.25;102409.66;4995790;27;45381;-77
2022/03/27 01:29:39;;;;;;;;;50.50;35.50;;;;;16.19;49.40;102402.75;4996237;28;45528;-78
2022/03/27 01:32:07;;;;;;;;;47.25;36.25;;;;;16.14;49.26;102398.13;4996235;28;45525;-79
2022/03/27 01:34:33;;;;;;;;;47.00;38.50;;;;;16.09;49.88;102392.66;4995907;28;46521;-78
2022/03/27 01:37:08;;;;;;;;;42.25;34.75;;;;;16.15;49.65;102402.50;4996717;28;45359;-76
2022/03/27 01:39:34;;;;;;;;;46.00;37.75;;;;;16.11;50.18;102403.19;4995824;28;45307;-75
2022/03/27 01:41:59;;;;;;;;;44.25;35.25;;;;;16.01;49.98;102384.47;4995931;28;45823;-77
2022/03/27 01:44:26;;;;;;;;;48.25;35.00;;;;;16.02;50.32;102396.72;4996155;28;45446;-74
2022/03/27 01:46:52;;;;;;;;;46.00;35.75;;;;;16.00;50.76;102398.34;4996375;28;45815;-74
2022/03/27 01:49:20;;;;;;;;;47.75;36.50;;;;;15.96;50.73;102378.13;4997416;27;45421;-72
2022/03/27 01:51:46;;;;;;;;;25.25;19.25;;;;;15.99;50.75;102379.97;4996143;27;45582;-74
2022/03/27 01:54:12;;;;;;;;;47.75;38.75;;;;;15.96;51.10;102383.34;4995537;27;45464;-73
2022/03/27 01:56:38;;;;;;;;;48.00;36.00;;;;;15.94;51.33;102380.66;4995793;28;45363;-73
2022/03/27 01:59:05;;;;;;;;;46.50;35.50;;;;;15.93;51.48;102378.88;4995617;27;45466;-73
2022/03/27 02:01:32;;;;;;;;;46.50;38.00;;;;;15.90;51.44;102373.50;4996025;28;45247;-75
2022/03/27 02:03:57;;;;;;;;;44.25;33.50;;;;;15.94;51.18;102374.53;4977699;28;47909;-73
2022/03/27 02:06:23;;;;;;;;;46.25;35.50;;;;;15.88;51.54;102362.06;4995731;28;45227;-74
2022/03/27 02:08:50;;;;;;;;;43.50;36.75;;;;;15.92;50.84;102371.84;4995724;27;45248;-74
2022/03/27 02:11:16;;;;;;;;;46.00;35.25;;;;;15.90;51.08;102368.25;4995006;28;45647;-74
2022/03/27 02:13:51;;;;;;;;;41.25;35.00;;;;;15.90;51.39;102360.44;4988421;28;45441;-75
2022/03/27 02:16:17;;;;;;;;;40.50;35.00;;;;;15.88;51.46;102358.56;5001987;27;45444;-73
2022/03/27 02:18:43;;;;;;;;;39.50;33.75;;;;;15.93;51.52;102368.41;5015409;27;45416;-73
2022/03/27 02:21:12;;;;;;;;;37.00;32.00;;;;;15.92;51.75;102364.00;5011252;28;45505;-74
2022/03/27 02:23:38;;;;;;;;;37.75;32.75;;;;;15.97;51.42;102373.81;4995247;27;45327;-77
2022/03/27 02:26:05;;;;;;;;;39.75;32.50;;;;;15.98;51.66;102376.47;4995008;27;45266;-74
2022/03/27 02:28:31;;;;;;;;;43.00;33.50;;;;;16.02;51.34;102377.50;4998963;28;45492;-74
2022/03/27 02:30:57;;;;;;;;;46.00;34.25;;;;;15.96;51.24;102364.16;5002796;28;45627;-72
2022/03/27 02:33:24;;;;;;;;;34.25;32.25;;;;;15.95;52.01;102371.09;5009618;28;45428;-74
2022/03/27 02:35:49;;;;;;;;;40.25;33.00;;;;;15.87;52.09;102370.75;4998110;28;45350;-77
2022/03/27 02:38:15;;;;;;;;;40.00;32.00;;;;;15.86;51.75;102375.88;5017132;27;45443;-77
2022/03/27 02:40:43;;;;;;;;;42.50;35.50;;;;;15.81;52.08;102374.75;5016418;27;45516;-74
2022/03/27 02:43:12;;;;;;;;;42.75;33.50;;;;;15.78;52.94;102379.00;5014853;27;46093;-77
2022/03/27 02:45:38;;;;;;;;;21.25;17.25;;;;;15.80;53.18;102381.66;5015100;27;45991;-77
2022/03/27 02:48:04;;;;;;;;;40.25;34.00;;;;;15.77;52.86;102366.75;5014908;28;45313;-76
2022/03/27 02:50:31;;;;;;;;;38.00;33.00;;;;;15.73;52.74;102364.81;4997366;28;45591;-74
2022/03/27 02:53:00;;;;;;;;;38.00;31.75;;;;;15.70;52.90;102369.91;5014692;28;45314;-73
2022/03/27 02:55:26;;;;;;;;;38.75;32.75;;;;;15.70;52.64;102367.28;5014909;27;45849;-73
2022/03/27 02:57:53;;;;;;;;;33.25;31.50;;;;;15.66;52.75;102377.50;5008092;28;45627;-76
2022/03/27 03:00:19;;;;;;;;;33.50;27.25;;;;;15.61;52.56;102365.13;4995008;28;45490;-76
2022/03/27 03:02:45;;;;;;;;;22.25;17.75;;;;;15.58;53.21;102378.00;4994788;28;45442;-74
2022/03/27 03:05:11;;;;;;;;;41.75;32.50;;;;;15.51;53.39;102359.34;4994462;28;45356;-78
2022/03/27 03:07:41;;;;;;;;;46.75;35.25;;;;;15.53;53.49;102376.00;4995008;28;45310;-75
2022/03/27 03:10:08;;;;;;;;;38.50;31.00;;;;;15.51;53.99;102380.22;4994962;27;45611;-75
2022/03/27 03:12:33;;;;;;;;;45.00;34.50;;;;;15.49;53.68;102380.16;4994617;28;45696;-76
2022/03/27 03:14:59;;;;;;;;;35.75;32.00;;;;;15.46;53.49;102382.63;4994309;28;45365;-74
2022/03/27 03:17:25;;;;;;;;;42.25;32.25;;;;;15.41;54.29;102382.38;4995124;27;45445;-75
2022/03/27 03:19:52;;;;;;;;;38.00;32.75;;;;;15.37;54.66;102388.28;4995984;28;45483;-74
2022/03/27 03:22:18;;;;;;;;;36.25;31.75;;;;;15.35;54.42;102389.00;4998665;28;46244;-77
2022/03/27 03:24:44;;;;;;;;;35.00;30.25;;;;;15.32;54.77;102395.88;4996182;28;45252;-77
2022/03/27 03:27:10;;;;;;;;;36.25;28.50;;;;;15.28;55.22;102386.09;5007940;28;44843;-73
2022/03/27 03:29:36;;;;;;;;;41.50;34.25;;;;;15.28;54.50;102393.94;4997643;27;45224;-78
2022/03/27 03:32:02;;;;;;;;;40.25;31.00;;;;;15.20;55.53;102377.00;4994058;28;46096;-75
2022/03/27 03:34:27;;;;;;;;;32.25;27.25;;;;;15.22;55.02;102388.41;4994326;28;45431;-76
2022/03/27 03:36:53;;;;;;;;;35.25;31.25;;;;;15.16;55.08;102380.25;4994939;28;45322;-75
2022/03/27 03:39:19;;;;;;;;;34.50;29.25;;;;;15.20;55.70;102391.72;4993528;28;45432;-76
2022/03/27 03:41:46;;;;;;;;;35.50;30.25;;;;;15.16;54.91;102383.78;4994398;28;45387;-74
2022/03/27 03:44:12;;;;;;;;;30.75;29.00;;;;;15.22;55.73;102383.19;4998324;28;45790;-77
2022/03/27 03:46:37;;;;;;;;;36.25;29.50;;;;;15.22;55.72;102380.59;5000035;28;45241;-77
2022/03/27 03:49:06;;;;;;;;;40.75;33.50;;;;;15.17;55.34;102379.44;4996444;28;45232;-73
2022/03/27 03:51:34;;;;;;;;;39.25;32.75;;;;;15.20;55.39;102389.13;5010616;28;45447;-73
2022/03/27 03:54:00;;;;;;;;;32.25;29.75;;;;;15.16;55.69;102381.16;4994062;27;45844;-75
2022/03/27 03:56:27;;;;;;;;;39.25;32.50;;;;;15.16;55.49;102390.69;4994460;28;45286;-73
2022/03/27 03:58:52;;;;;;;;;38.25;30.50;;;;;15.07;55.80;102379.78;4994936;28;45278;-77
2022/03/27 04:01:18;;;;;;;;;35.50;29.75;;;;;15.06;56.51;102378.91;4976295;28;45798;-73
2022/03/27 04:03:43;;;;;;;;;33.50;28.00;;;;;15.06;55.92;102385.81;4977190;28;45540;-75
2022/03/27 04:06:09;;;;;;;;;40.25;32.00;;;;;15.05;56.29;102381.41;4980327;28;45229;-74
2022/03/27 04:08:36;;;;;;;;;39.25;33.00;;;;;14.96;56.44;102382.72;4995321;28;45462;-74
2022/03/27 04:11:02;;;;;;;;;32.00;29.25;;;;;14.96;56.54;102381.81;4976000;28;46835;-74
2022/03/27 04:13:28;;;;;;;;;34.50;32.00;;;;;14.90;56.78;102377.19;4994075;28;45345;-74
2022/03/27 04:15:53;;;;;;;;;34.25;30.25;;;;;14.92;57.06;102385.09;4994866;28;45394;-74
2022/03/27 04:18:19;;;;;;;;;37.25;31.75;;;;;14.82;57.53;102375.88;4994503;27;45648;-73
2022/03/27 04:20:45;;;;;;;;;32.25;30.00;;;;;14.84;57.01;102390.81;4993719;28;46051;-74
2022/03/27 04:23:10;;;;;;;;;38.50;30.75;;;;;14.81;57.50;102394.94;4993781;28;45449;-73
2022/03/27 04:25:36;;;;;;;;;35.25;32.00;;;;;14.76;57.85;102397.31;4994121;28;45366;-74
2022/03/27 04:28:07;;;;;;;;;39.75;32.00;;;;;14.72;57.72;102392.78;4993703;28;45225;-74
2022/03/27 04:30:33;;;;;;;;;32.50;29.75;;;;;14.63;59.05;102387.94;4975921;28;48027;-73
2022/03/27 04:32:59;;;;;;;;;41.50;32.50;;;;;14.64;58.47;102394.94;4993534;28;45417;-75
2022/03/27 04:35:25;;;;;;;;;36.00;30.75;;;;;14.55;58.83;102389.22;4999937;28;45436;-73
2022/03/27 04:37:50;;;;;;;;;38.25;32.00;;;;;14.53;58.76;102394.34;5013997;28;45415;-73
2022/03/27 04:40:16;;;;;;;;;39.00;31.75;;;;;14.58;58.46;102391.97;5011270;28;45322;-74
2022/03/27 04:42:42;;;;;;;;;34.75;31.00;;;;;14.61;58.76;102401.69;5013437;27;45270;-73
2022/03/27 04:45:09;;;;;;;;;39.00;31.00;;;;;14.61;59.40;102404.31;4994330;28;45539;-74
2022/03/27 04:47:35;;;;;;;;;34.50;30.25;;;;;14.62;58.73;102400.88;4994604;28;45199;-73
2022/03/27 04:50:02;;;;;;;;;38.75;33.50;;;;;14.57;58.73;102400.63;4993338;28;45480;-72
2022/03/27 04:52:27;;;;;;;;;41.25;33.25;;;;;14.60;59.07;102408.59;4993547;28;45407;-72
2022/03/27 04:54:54;;;;;;;;;37.50;32.00;;;;;14.55;59.45;102397.06;4993849;27;45351;-73
2022/03/27 04:57:21;;;;;;;;;36.00;31.75;;;;;14.55;59.63;102397.06;5006185;28;45317;-72
2022/03/27 04:59:47;;;;;;;;;40.00;31.25;;;;;14.48;59.35;102395.81;4993373;28;45280;-72
2022/03/27 05:02:13;;;;;;;;;36.00;32.00;;;;;14.49;59.70;102399.31;4975299;28;45298;-73
2022/03/27 05:04:40;;;;;;;;;43.25;34.75;;;;;14.46;59.74;102399.16;4994054;28;45400;-72
2022/03/27 05:07:06;;;;;;;;;42.25;33.00;;;;;14.45;60.06;102408.66;4993516;28;45473;-72
2022/03/27 05:09:32;;;;;;;;;40.00;29.50;;;;;14.42;60.11;102398.06;4993112;28;45376;-72
2022/03/27 05:11:57;;;;;;;;;42.75;33.25;;;;;14.44;59.72;102417.31;4992912;28;45415;-72
2022/03/27 05:14:23;;;;;;;;;40.50;32.00;;;;;14.37;60.61;102409.97;4993729;28;45364;-72
2022/03/27 05:16:48;;;;;;;;;41.00;32.00;;;;;14.40;60.17;102413.63;4993443;28;45395;-73
2022/03/27 05:19:14;;;;;;;;;37.25;30.50;;;;;14.35;60.51;102409.91;4992728;28;45979;-72
2022/03/27 05:21:40;;;;;;;;;41.75;33.75;;;;;14.35;60.68;102414.19;4992991;28;45485;-74
2022/03/27 05:24:08;;;;;;;;;34.75;31.00;;;;;14.31;61.01;102414.81;4993011;28;45390;-73
2022/03/27 05:26:37;;;;;;;;;37.75;32.50;;;;;14.25;61.00;102415.41;4975475;28;45531;-73
2022/03/27 05:29:05;;;;;;;;;38.75;33.00;;;;;14.30;61.71;102423.47;4992651;27;46561;-73
2022/03/27 05:31:32;;;;;;;;;37.50;32.75;;;;;14.28;61.61;102431.19;4993340;28;45330;-72
2022/03/27 05:33:57;;;;;;;;;45.00;36.25;;;;;14.22;61.29;102416.13;4993303;28;45314;-74
2022/03/27 05:36:23;;;;;;;;;42.75;34.00;;;;;14.22;60.94;102426.53;4994157;27;45504;-75
2022/03/27 05:38:49;;;;;;;;;38.25;33.50;;;;;14.22;61.11;102431.75;4994085;28;46136;-75
2022/03/27 05:41:15;;;;;;;;;33.25;28.50;;;;;14.21;61.72;102429.06;4974851;28;45255;-73
2022/03/27 05:43:41;;;;;;;;;39.75;33.75;;;;;14.17;62.52;102425.41;4992889;27;45284;-72
2022/03/27 05:46:07;;;;;;;;;41.25;33.00;;;;;14.15;61.88;102426.09;4992654;28;45392;-73
2022/03/27 05:48:33;;;;;;;;;40.50;33.00;;;;;14.15;62.15;102432.22;4991058;28;45926;-72
2022/03/27 05:50:58;;;;;;;;;35.50;31.75;;;;;14.13;62.09;102426.03;4976346;28;45346;-73
2022/03/27 05:53:24;;;;;;;;;36.25;32.00;;;;;14.10;62.64;102425.84;5003707;28;45382;-72
2022/03/27 05:55:49;;;;;;;;;43.25;34.75;;;;;14.03;62.70;102431.53;4992755;28;45339;-72
2022/03/27 05:58:18;;;;;;;;;38.50;31.75;;;;;14.02;62.75;102433.25;4991667;28;45842;-72
2022/03/27 06:00:44;;;;;;;;;36.50;30.75;;;;;13.97;63.39;102429.47;4992337;28;45219;-73
2022/03/27 06:03:09;;;;;;;;;39.25;32.50;;;;;13.97;63.33;102436.41;4993654;28;45811;-72
2022/03/27 06:05:35;;;;;;;;;40.00;33.50;;;;;13.94;63.18;102437.09;4995502;27;45371;-73
2022/03/27 06:08:01;;;;;;;;;41.25;33.25;;;;;13.93;63.64;102444.03;4995372;28;45950;-73
2022/03/27 06:10:31;;;;;;;;;44.00;33.00;;;;;13.90;63.80;102437.75;4996588;27;45531;-74
2022/03/27 06:12:59;;;;;;;;;47.00;38.75;;;;;13.93;64.11;102445.72;5008928;28;45403;-73
2022/03/27 06:15:26;;;;;;;;;39.50;34.50;;;;;13.96;64.16;102451.09;4996003;27;45664;-73
2022/03/27 06:17:53;;;;;;;;;40.25;33.75;;;;;13.95;63.39;102446.72;4995519;28;45468;-73
2022/03/27 06:20:23;;;;;;;;;36.25;32.00;;;;;13.98;63.35;102452.09;4998953;28;45978;-72
2022/03/27 06:22:49;;;;;;;;;50.50;38.00;;;;;13.91;63.80;102434.34;5010853;28;45165;-74
2022/03/27 06:25:17;;;;;;;;;46.75;36.25;;;;;13.95;63.40;102457.13;5007542;28;45627;-73
2022/03/27 06:27:44;;;;;;;;;46.75;36.50;;;;;13.92;63.78;102455.25;4994994;27;46219;-73
2022/03/27 06:30:13;;;;;;;;;41.00;33.00;;;;;13.90;64.17;102455.97;4994917;28;45991;-73
2022/03/27 06:32:38;;;;;;;;;41.50;35.00;;;;;13.91;64.12;102466.47;4995356;27;45301;-73
2022/03/27 06:35:08;;;;;;;;;44.25;35.00;;;;;13.94;64.18;102455.31;4995191;28;45538;-72
2022/03/27 06:37:34;;;;;;;;;42.25;34.00;;;;;13.95;64.15;102458.84;4995040;28;46353;-72
2022/03/27 06:40:02;;;;;;;;;41.00;33.75;;;;;13.96;63.83;102458.91;5001900;28;45401;-73
2022/03/27 06:42:28;;;;;;;;;53.75;41.25;;;;;13.95;64.67;102448.44;4998943;28;45339;-75
2022/03/27 06:44:54;;;;;;;;;50.00;38.75;;;;;14.05;64.23;102454.22;4995402;28;45504;-73
2022/03/27 06:47:22;;;;;;;;;39.50;33.75;;;;;14.05;63.45;102446.41;4994839;27;45408;-70
2022/03/27 06:49:48;;;;;;;;;45.75;37.00;;;;;14.12;63.78;102460.69;4994560;28;45340;-72
2022/03/27 06:52:16;;;;;;;;;37.50;32.50;;;;;14.08;63.54;102443.13;4994519;28;45347;-73
2022/03/27 06:54:43;;;;;;;;;42.50;32.00;;;;;14.13;63.97;102452.06;4995139;28;45345;-72
2022/03/27 06:57:08;;;;;;;;;36.50;30.00;;;;;14.12;64.06;102452.00;4994170;28;45448;-73
2022/03/27 07:05:04;;;;;;;;;40.50;31.25;;;;;14.09;63.30;102451.00;5008455;28;45434;-72
2022/03/27 07:07:30;;;;;;;;;50.50;39.25;;;;;14.07;64.16;102459.56;4994190;27;45925;-72
2022/03/27 07:09:56;;;;;;;;;44.50;33.25;;;;;14.04;64.23;102448.94;4994036;28;45495;-74
2022/03/27 07:12:22;;;;;;;;;45.75;37.50;;;;;14.06;63.94;102452.53;4994600;28;45331;-74
2022/03/27 07:14:51;;;;;;;;;40.75;33.50;;;;;14.17;64.43;102460.94;4993506;28;45495;-74
2022/03/27 07:17:18;;;;;;;;;42.00;35.00;;;;;14.11;63.98;102445.88;5001655;28;46080;-78
2022/03/27 07:19:47;;;;;;;;;41.00;33.25;;;;;14.22;64.04;102454.31;4984265;28;45907;-74
2022/03/27 07:22:14;;;;;;;;;42.25;36.00;;;;;14.20;64.05;102451.59;5011495;28;45447;-77
2022/03/27 07:24:41;;;;;;;;;42.00;34.25;;;;;14.22;64.12;102467.34;4995218;28;45514;-74
2022/03/27 07:27:08;;;;;;;;;45.00;35.50;;;;;14.25;64.50;102459.69;4992560;28;45417;-75
2022/03/27 07:29:37;;;;;;;;;39.50;32.50;;;;;14.17;63.77;102441.03;4994102;28;45324;-79
2022/03/27 07:32:07;;;;;;;;;46.50;36.50;;;;;14.11;63.55;102425.03;5014303;27;45452;-77
2022/03/27 07:34:34;;;;;;;;;50.00;39.00;;;;;14.31;64.43;102459.13;5017960;27;45437;-78
2022/03/27 07:37:00;;;;;;;;;38.75;33.00;;;;;14.23;63.63;102440.47;5002721;27;45834;-74
2022/03/27 07:39:25;;;;;;;;;41.25;33.25;;;;;14.42;63.41;102464.94;5005349;28;45423;-76
2022/03/27 07:41:53;;;;;;;;;39.75;31.75;;;;;14.32;63.32;102463.50;5012344;28;45461;-77
2022/03/27 07:44:18;;;;;;;;;41.00;34.00;;;;;14.37;63.97;102467.28;5014549;27;45399;-74
2022/03/27 07:46:44;;;;;;;;;39.25;32.00;;;;;14.44;63.15;102464.22;5014749;28;45948;-75
2022/03/27 07:49:10;;;;;;;;;40.25;32.25;;;;;14.42;63.84;102460.63;5015708;28;45371;-76
2022/03/27 07:51:36;;;;;;;;;37.50;32.75;;;;;14.50;63.53;102475.00;5014467;27;45508;-77
2022/03/27 07:54:03;;;;;;;;;41.00;32.00;;;;;14.51;63.71;102463.75;5013897;27;45338;-74
2022/03/27 07:56:29;;;;;;;;;43.50;33.50;;;;;14.62;63.50;102471.28;5013919;27;46157;-76
2022/03/27 07:58:56;;;;;;;;;39.25;32.75;;;;;14.50;63.10;102446.31;5014427;27;45251;-76
2022/03/27 08:01:23;;;;;;;;;36.25;32.50;;;;;14.61;63.02;102457.31;5014167;28;45239;-76
2022/03/27 08:03:49;;;;;;;;;38.25;34.25;;;;;14.64;62.46;102446.16;4996600;28;45609;-75
2022/03/27 08:06:15;;;;;;;;;46.25;35.50;;;;;14.67;62.63;102448.97;5013411;28;45401;-75
2022/03/27 08:08:42;;;;;;;;;37.50;33.50;;;;;14.85;62.40;102465.59;5014015;28;45347;-75
2022/03/27 08:11:07;;;;;;;;;37.50;31.75;;;;;14.90;61.77;102458.03;4995745;28;45336;-74
2022/03/27 08:13:33;;;;;;;;;40.00;35.00;;;;;14.91;62.28;102446.78;5014037;28;45295;-78
2022/03/27 08:15:59;;;;;;;;;46.75;37.75;;;;;14.93;61.67;102445.16;4995675;28;47144;-75
2022/03/27 08:18:24;;;;;;;;;44.25;33.75;;;;;15.10;61.35;102469.53;5014395;28;45382;-75
2022/03/27 08:20:50;;;;;;;;;41.25;31.75;;;;;15.13;61.26;102464.47;5015003;28;45360;-76
2022/03/27 08:23:15;;;;;;;;;41.50;34.75;;;;;15.16;60.69;102472.47;5014043;28;45563;-77
2022/03/27 08:28:25;;;;;;;;;42.50;35.00;;;;;15.29;60.90;102475.69;5014436;28;45440;-75
2022/03/27 08:30:51;;;;;;;;;44.25;34.75;;;;;15.33;60.00;102468.13;5013769;27;45388;-75
2022/03/27 08:33:17;;;;;;;;;42.25;34.75;;;;;15.35;59.61;102468.22;5013986;28;45314;-76
2022/03/27 08:35:44;;;;;;;;;31.75;29.75;;;;;15.38;59.29;102473.59;4995578;28;45423;-77
2022/03/27 08:38:12;;;;;;;;;40.75;32.00;;;;;15.38;59.11;102470.06;4995640;28;45761;-84
2022/03/27 08:40:39;;;;;;;;;46.50;36.50;;;;;15.29;59.55;102447.00;4995039;28;45430;-80
2022/03/27 08:43:09;;;;;;;;;44.00;34.00;;;;;15.43;59.75;102476.44;4994823;28;45508;-76
2022/03/27 08:45:35;;;;;;;;;37.00;31.75;;;;;15.50;60.09;102469.78;5012712;28;46207;-83
2022/03/27 08:48:00;;;;;;;;;37.50;31.50;;;;;15.53;59.52;102465.66;5013047;28;45316;-78
2022/03/27 08:50:32;;;;;;;;;39.50;32.00;;;;;15.43;58.84;102442.50;5013363;28;45286;-77
2022/03/27 08:53:01;;;;;;;;;34.50;32.00;;;;;15.60;58.94;102466.88;5013544;28;45282;-80
2022/03/27 08:55:42;;;;;;;;;44.00;32.00;;;;;15.65;59.05;102469.72;5012567;28;45823;-76
2022/03/27 08:58:10;;;;;;;;;40.25;31.50;;;;;15.68;59.05;102462.91;5012861;28;45950;-80
2022/03/27 09:00:36;;;;;;;;;39.00;32.50;;;;;15.71;58.81;102463.06;5012913;27;45336;-76
2022/03/27 09:03:03;;;;;;;;;41.50;34.00;;;;;15.76;58.81;102464.19;4995472;28;45567;-75
2022/03/27 09:05:29;;;;;;;;;38.25;32.50;;;;;15.76;58.45;102458.97;5012451;28;45457;-78
2022/03/27 09:07:56;;;;;;;;;37.75;30.25;;;;;15.83;57.84;102467.09;5012549;28;45405;-76
2022/03/27 09:10:25;;;;;;;;;37.75;32.00;;;;;15.88;58.35;102471.78;5013825;27;45398;-75
2022/03/27 09:12:52;;;;;;;;;39.50;30.75;;;;;15.91;58.39;102474.53;5014347;27;45302;-75
2022/03/27 09:15:19;;;;;;;;;39.00;32.00;;;;;15.94;57.68;102465.94;5012741;27;45658;-75
2022/03/27 09:18:05;;;;;;;;;32.50;30.00;;;;;16.01;57.66;102475.91;5012684;28;45390;-76
2022/03/27 09:20:48;;;;;;;;;39.75;32.00;;;;;16.02;57.57;102480.31;5012915;28;45354;-80
2022/03/27 09:23:24;;;;;;;;;39.00;31.50;;;;;16.09;57.52;102479.78;5012117;27;45473;-75
2022/03/27 09:25:53;;;;;;;;;37.50;33.25;;;;;16.16;57.81;102483.59;4993830;28;47407;-74
2022/03/27 09:28:26;;;;;;;;;34.25;26.25;;;;;16.20;57.76;102482.91;5011740;28;45919;-74
2022/03/27 09:30:52;;;;;;;;;34.75;30.75;;;;;16.25;57.11;102481.41;5011715;28;45416;-75
2022/03/27 09:33:46;;;;;;;;;47.00;35.00;;;;;16.23;56.36;102463.88;4994333;27;45404;-75
2022/03/27 09:36:15;;;;;;;;;1.50;0.00;;;;;16.23;56.39;102459.53;5011844;28;45379;-76
2022/03/27 09:38:40;;;;;;;;;36.50;31.75;;;;;16.28;56.26;102466.72;4996840;28;45455;-77
2022/03/27 09:41:27;;;;;;;;;31.75;29.50;;;;;16.39;55.75;102468.13;5015396;28;45315;-78
2022/03/27 09:44:01;;;;;;;;;41.00;31.75;;;;;16.43;55.47;102467.44;5015065;28;45322;-76
2022/03/27 09:46:27;;;;;;;;;34.75;30.00;;;;;16.48;55.29;102471.16;4996815;28;47702;-76
2022/03/27 09:48:59;;;;;;;;;37.25;28.50;;;;;16.54;55.14;102471.44;5015254;28;45263;-78
2022/03/27 09:51:25;;;;;;;;;32.25;29.25;;;;;16.59;54.24;102470.78;5016532;27;45284;-75
2022/03/27 09:54:00;;;;;;;;;33.75;29.75;;;;;16.55;53.61;102457.56;5017823;27;45481;-78
2022/03/27 09:56:29;;;;;;;;;35.25;31.00;;;;;16.42;53.70;102433.38;5016582;28;45287;-75
2022/03/27 09:58:55;;;;;;;;;33.75;28.00;;;;;16.65;53.62;102466.72;5016352;28;45778;-76
2022/03/27 10:01:24;;;;;;;;;33.00;29.75;;;;;16.69;53.59;102463.41;5016101;27;45417;-79
2022/03/27 10:04:10;;;;;;;;;34.00;30.75;;;;;16.73;53.82;102474.94;4997074;28;45475;-77
2022/03/27 10:06:40;;;;;;;;;35.00;29.75;;;;;16.77;53.63;102458.53;5014663;28;45381;-77
2022/03/27 10:09:08;;;;;;;;;43.75;33.00;;;;;16.80;53.41;102456.06;5014769;28;45323;-77
2022/03/27 10:11:35;;;;;;;;;41.50;33.25;;;;;16.81;53.74;102450.03;5014735;28;45451;-76
2022/03/27 10:14:03;;;;;;;;;43.75;34.50;;;;;16.88;54.20;102453.81;5015037;27;45536;-76
2022/03/27 10:16:37;;;;;;;;;33.00;28.50;;;;;16.81;53.13;102430.78;5014001;27;46200;-76
2022/03/27 10:19:11;;;;;;;;;37.00;32.50;;;;;16.97;53.59;102450.72;5014533;28;45843;-79
2022/03/27 10:21:38;;;;;;;;;41.00;33.00;;;;;16.99;53.49;102446.47;5014200;28;45327;-78
2022/03/27 10:24:27;;;;;;;;;32.50;28.25;;;;;16.98;53.70;102426.34;5014157;27;45284;-76
2022/03/27 10:26:57;;;;;;;;;42.50;34.25;;;;;17.07;53.90;102438.97;5013500;27;46058;-78
2022/03/27 10:29:23;;;;;;;;;33.00;32.00;;;;;17.00;53.37;102417.78;5013915;28;45318;-77
2022/03/27 10:31:50;;;;;;;;;40.75;32.25;;;;;17.17;52.68;102436.81;5013766;28;45224;-77
2022/03/27 10:34:17;;;;;;;;;46.25;32.50;;;;;17.23;52.99;102435.28;5013852;27;45454;-76
2022/03/27 10:37:25;;;;;;;;;35.50;31.75;;;;;17.27;53.22;102439.84;5014981;28;45575;-78
2022/03/27 10:40:18;;;;;;;;;41.75;34.75;;;;;17.32;53.10;102433.06;5014380;28;45448;-77
2022/03/27 10:42:54;;;;;;;;;37.50;32.50;;;;;17.35;53.43;102427.97;5015017;28;45408;-79
2022/03/27 10:45:21;;;;;;;;;38.50;34.50;;;;;17.35;52.61;102412.28;5015332;28;45546;-76
2022/03/27 10:48:10;;;;;;;;;34.75;30.50;;;;;17.46;51.98;102417.94;5014350;28;45334;-78
2022/03/27 10:50:51;;;;;;;;;41.25;33.75;;;;;17.52;51.13;102414.69;5014044;27;45336;-77
2022/03/27 10:53:20;;;;;;;;;35.25;31.50;;;;;17.48;50.16;102398.88;5014341;28;45398;-75
2022/03/27 10:55:47;;;;;;;;;31.50;29.00;;;;;17.54;50.32;102395.63;5014826;28;45287;-78
2022/03/27 10:58:35;;;;;;;;;35.50;30.75;;;;;17.65;48.85;102398.66;5013553;27;46214;-75
2022/03/27 11:01:03;;;;;;;;;40.50;33.00;;;;;17.70;48.69;102406.69;5014001;28;45500;-76
2022/03/27 11:03:50;;;;;;;;;40.00;30.25;;;;;17.73;47.65;102394.63;5014056;28;45522;-73
2022/03/27 11:06:28;;;;;;;;;39.25;33.00;;;;;17.77;47.83;102395.63;5013869;27;45236;-74
2022/03/27 11:08:56;;;;;;;;;39.25;30.25;;;;;17.82;48.14;102396.72;4997603;28;47597;-78
2022/03/27 11:11:37;;;;;;;;;35.25;28.75;;;;;17.85;47.04;102381.16;4997205;28;45872;-79
2022/03/27 11:14:05;;;;;;;;;37.25;30.50;;;;;17.91;46.26;102384.00;4997471;28;45486;-78
2022/03/27 11:16:33;;;;;;;;;42.00;32.25;;;;;17.77;46.07;102356.34;5016129;27;45372;-85
2022/03/27 11:18:59;;;;;;;;;36.25;29.50;;;;;17.96;46.63;102371.06;5016727;27;45582;-82
2022/03/27 11:21:28;;;;;;;;;36.25;31.50;;;;;18.08;46.99;102381.19;5019946;28;45851;-77
2022/03/27 11:23:55;;;;;;;;;37.50;34.25;;;;;18.02;46.68;102349.47;5016530;28;45386;-79